createdAt,value
2023-03-07T00:00:13.671Z,58.07495117
2023-03-07T00:01:14.602Z,58.07495117
2023-03-07T00:02:16.216Z,57.86743164
2023-03-07T00:03:17.298Z,57.76367188
2023-03-07T00:04:18.294Z,57.65991211
2023-03-07T00:05:19.346Z,57.65991211
2023-03-07T00:06:20.312Z,57.76367188
2023-03-07T00:07:21.304Z,57.76367188
2023-03-07T00:08:22.334Z,57.76367188
2023-03-07T00:09:23.304Z,57.76367188
2023-03-07T00:10:24.236Z,57.55615234
2023-03-07T00:11:25.131Z,57.76367188
2023-03-07T00:12:26.688Z,57.99560547
2023-03-07T00:13:58.269Z,57.99560547
2023-03-07T00:14:59.194Z,57.99560547
2023-03-07T00:16:00.248Z,57.8918457
2023-03-07T00:17:01.087Z,57.99560547
2023-03-07T00:18:02.049Z,57.8918457
2023-03-07T00:19:03.092Z,58.09936523
2023-03-07T00:20:04.176Z,58.09936523
2023-03-07T00:21:05.142Z,58.09936523
2023-03-07T00:22:06.192Z,57.99560547
2023-03-07T00:23:07.602Z,57.99560547
2023-03-07T00:24:08.604Z,57.99560547
2023-03-07T00:25:09.670Z,58.09936523
2023-03-07T00:26:10.853Z,57.99560547
2023-03-07T00:27:11.853Z,57.99560547
2023-03-07T00:28:12.823Z,58.09936523
2023-03-07T00:29:14.905Z,58.09936523
2023-03-07T00:30:15.975Z,57.86743164
2023-03-07T00:31:17.210Z,57.76367188
2023-03-07T00:32:18.267Z,57.65991211
2023-03-07T00:33:19.688Z,57.65991211
2023-03-07T00:34:20.805Z,57.55615234
2023-03-07T00:35:21.880Z,57.34863281
2023-03-07T00:36:22.902Z,57.14111328
2023-03-07T00:37:24.757Z,56.90917969
2023-03-07T00:38:25.760Z,56.70166016
2023-03-07T00:39:57.882Z,56.59790039
2023-03-07T00:40:58.764Z,56.39038086
2023-03-07T00:41:59.838Z,56.18286133
2023-03-07T00:43:01.654Z,56.28662109
2023-03-07T00:44:02.623Z,56.28662109
2023-03-07T00:45:03.738Z,55.95092773
2023-03-07T00:46:04.951Z,55.84716797
2023-03-07T00:47:05.961Z,55.84716797
2023-03-07T00:48:06.919Z,55.95092773
2023-03-07T00:49:07.862Z,55.95092773
2023-03-07T00:50:08.750Z,55.84716797
2023-03-07T00:51:09.874Z,55.63964844
2023-03-07T00:52:10.886Z,55.76782227
2023-03-07T00:53:12.616Z,56.07910156
2023-03-07T00:54:13.553Z,56.28662109
2023-03-07T00:55:14.709Z,56.39038086
2023-03-07T00:56:15.602Z,56.28662109
2023-03-07T00:57:16.613Z,56.49414063
2023-03-07T00:58:17.727Z,56.49414063
2023-03-07T00:59:18.672Z,56.49414063
2023-03-07T01:00:20.135Z,56.49414063
2023-03-07T01:01:21.164Z,56.59790039
2023-03-07T01:02:22.151Z,56.49414063
2023-03-07T01:03:23.729Z,56.49414063
2023-03-07T01:04:24.726Z,56.39038086
2023-03-07T01:05:25.809Z,56.18286133
2023-03-07T01:06:57.290Z,55.87158203
2023-03-07T01:07:58.306Z,55.63964844
2023-03-07T01:08:59.345Z,55.63964844
2023-03-07T01:10:01.161Z,55.7434082
2023-03-07T01:11:02.025Z,55.87158203
2023-03-07T01:12:02.868Z,55.87158203
2023-03-07T01:13:04.683Z,55.87158203
2023-03-07T01:14:05.696Z,55.87158203
2023-03-07T01:15:06.670Z,55.6640625
2023-03-07T01:16:07.585Z,55.87158203
2023-03-07T01:17:08.425Z,56.20727539
2023-03-07T01:18:09.483Z,56.20727539
2023-03-07T01:19:10.698Z,56.41479492
2023-03-07T01:20:11.614Z,56.51855469
2023-03-07T01:21:12.514Z,56.41479492
2023-03-07T01:22:13.510Z,55.9753418
2023-03-07T01:23:15.210Z,55.87158203
2023-03-07T01:24:16.265Z,55.9753418
2023-03-07T01:25:17.302Z,55.87158203
2023-03-07T01:26:18.178Z,55.76782227
2023-03-07T01:27:19.121Z,55.56030273
2023-03-07T01:28:20.085Z,55.43212891
2023-03-07T01:29:21.673Z,55.22460938
2023-03-07T01:30:22.660Z,54.91333008
2023-03-07T01:31:23.769Z,54.81567383
2023-03-07T01:32:24.489Z,55.24902344
2023-03-07T01:33:56.911Z,55.04760742
2023-03-07T01:34:58.781Z,55.15136719
2023-03-07T01:35:59.817Z,55.04760742
2023-03-07T01:37:00.642Z,54.84008789
2023-03-07T01:38:01.465Z,54.84008789
2023-03-07T01:39:02.377Z,54.63256836
2023-03-07T01:40:04.183Z,54.73632813
2023-03-07T01:41:05.143Z,54.84008789
2023-03-07T01:42:06.101Z,54.52880859
2023-03-07T01:43:07.746Z,54.52880859
2023-03-07T01:44:08.618Z,54.42504883
2023-03-07T01:45:09.557Z,54.42504883
2023-03-07T01:46:10.820Z,54.42504883
2023-03-07T01:47:11.777Z,54.32128906
2023-03-07T01:48:12.529Z,54.65698242
2023-03-07T01:49:13.388Z,54.86450195
2023-03-07T01:50:14.528Z,54.63256836
2023-03-07T01:51:15.554Z,54.52880859
2023-03-07T01:52:16.464Z,54.42504883
2023-03-07T01:53:18.130Z,54.42504883
2023-03-07T01:54:18.971Z,54.52880859
2023-03-07T01:55:20.030Z,54.76074219
2023-03-07T01:56:20.947Z,54.86450195
2023-03-07T01:57:22.025Z,54.96826172
2023-03-07T01:58:22.938Z,55.07202148
2023-03-07T01:59:24.627Z,55.07202148
2023-03-07T02:00:26.002Z,55.07202148
2023-03-07T02:01:57.467Z,55.17578125
2023-03-07T02:02:58.563Z,55.07202148
2023-03-07T02:04:00.149Z,55.07202148
2023-03-07T02:05:00.899Z,55.17578125
2023-03-07T02:06:01.856Z,55.07202148
2023-03-07T02:07:02.841Z,54.96826172
2023-03-07T02:08:03.887Z,55.07202148
2023-03-07T02:09:04.801Z,55.17578125
2023-03-07T02:10:05.695Z,55.07202148
2023-03-07T02:11:06.624Z,54.86450195
2023-03-07T02:12:07.605Z,54.86450195
2023-03-07T02:13:09.222Z,54.86450195
2023-03-07T02:14:10.422Z,54.76074219
2023-03-07T02:15:12.062Z,55.07202148
2023-03-07T02:16:13.105Z,55.07202148
2023-03-07T02:17:14.027Z,54.76074219
2023-03-07T02:18:15.001Z,54.76074219
2023-03-07T02:19:15.978Z,54.86450195
2023-03-07T02:20:16.898Z,54.86450195
2023-03-07T02:21:17.814Z,54.96826172
2023-03-07T02:22:18.697Z,55.07202148
2023-03-07T02:23:20.147Z,55.07202148
2023-03-07T02:24:21.139Z,54.96826172
2023-03-07T02:25:22.077Z,55.30395508
2023-03-07T02:26:22.981Z,55.27954102
2023-03-07T02:27:23.831Z,55.07202148
2023-03-07T02:28:24.835Z,54.86450195
2023-03-07T02:29:57.099Z,54.86450195
2023-03-07T02:30:58.201Z,54.96826172
2023-03-07T02:31:58.987Z,54.99267578
2023-03-07T02:33:00.552Z,55.30395508
2023-03-07T02:34:02.229Z,55.30395508
2023-03-07T02:35:03.176Z,55.30395508
2023-03-07T02:36:04.166Z,55.51147461
2023-03-07T02:37:05.052Z,55.51147461
2023-03-07T02:38:05.896Z,55.27954102
2023-03-07T02:39:07.032Z,55.30395508
2023-03-07T02:40:07.908Z,55.40771484
2023-03-07T02:41:08.847Z,55.40771484
2023-03-07T02:42:09.752Z,55.61523438
2023-03-07T02:43:10.733Z,55.71899414
2023-03-07T02:44:12.649Z,55.82275391
2023-03-07T02:45:13.525Z,55.82275391
2023-03-07T02:46:14.690Z,56.03027344
2023-03-07T02:47:15.744Z,55.92651367
2023-03-07T02:48:16.557Z,55.92651367
2023-03-07T02:49:18.161Z,56.03027344
2023-03-07T02:50:19.059Z,56.03027344
2023-03-07T02:51:20.078Z,56.26220703
2023-03-07T02:52:21.048Z,56.26220703
2023-03-07T02:53:21.912Z,56.03027344
2023-03-07T02:54:23.622Z,55.92651367
2023-03-07T02:55:24.446Z,55.92651367
2023-03-07T02:56:57.164Z,55.92651367
2023-03-07T02:57:58.104Z,55.82275391
2023-03-07T02:58:58.988Z,55.59082031
2023-03-07T02:59:59.845Z,55.48706055
2023-03-07T03:01:00.853Z,55.48706055
2023-03-07T03:02:01.918Z,55.38330078
2023-03-07T03:03:03.715Z,55.17578125
2023-03-07T03:04:05.223Z,55.07202148
2023-03-07T03:05:06.231Z,55.07202148
2023-03-07T03:06:07.073Z,55.04760742
2023-03-07T03:07:08.711Z,54.84008789
2023-03-07T03:08:09.654Z,54.52880859
2023-03-07T03:09:10.697Z,54.42504883
2023-03-07T03:10:11.592Z,54.32128906
2023-03-07T03:11:12.405Z,54.32128906
2023-03-07T03:12:13.358Z,53.9855957
2023-03-07T03:13:14.342Z,53.88183594
2023-03-07T03:14:16.131Z,53.88183594
2023-03-07T03:15:16.959Z,53.88183594
2023-03-07T03:16:17.878Z,53.9855957
2023-03-07T03:17:18.756Z,53.9855957
2023-03-07T03:18:19.670Z,54.08935547
2023-03-07T03:19:20.701Z,54.19311523
2023-03-07T03:20:21.706Z,54.40063477
2023-03-07T03:21:22.556Z,54.19311523
2023-03-07T03:22:23.452Z,54.08935547
2023-03-07T03:23:24.424Z,54.58374023
2023-03-07T03:24:56.663Z,54.88891602
2023-03-07T03:25:57.506Z,55.30395508
2023-03-07T03:26:58.353Z,55.51147461
2023-03-07T03:28:00.105Z,55.84716797
2023-03-07T03:29:01.134Z,56.15844727
2023-03-07T03:30:02.187Z,56.3659668
2023-03-07T03:31:03.277Z,56.46972656
2023-03-07T03:32:04.161Z,56.67724609
2023-03-07T03:33:05.020Z,56.87866211
2023-03-07T03:34:06.741Z,57.11669922
2023-03-07T03:35:07.732Z,57.32421875
2023-03-07T03:36:08.841Z,57.52563477
2023-03-07T03:37:09.564Z,57.7331543
2023-03-07T03:38:10.630Z,57.83691406
2023-03-07T03:39:11.722Z,57.7331543
2023-03-07T03:40:12.797Z,57.83691406
2023-03-07T03:41:13.884Z,57.83691406
2023-03-07T03:42:14.760Z,57.83691406
2023-03-07T03:43:15.674Z,57.94067383
2023-03-07T03:44:17.211Z,58.04443359
2023-03-07T03:45:18.178Z,58.25195313
2023-03-07T03:46:19.217Z,58.45947266
2023-03-07T03:47:20.197Z,58.58764648
2023-03-07T03:48:21.114Z,58.69140625
2023-03-07T03:49:22.692Z,58.89892578
2023-03-07T03:50:23.734Z,59.21020508
2023-03-07T03:51:55.499Z,59.55200195
2023-03-07T03:52:56.443Z,59.75341797
2023-03-07T03:53:57.376Z,59.75341797
2023-03-07T03:54:59.201Z,59.85717773
2023-03-07T03:56:01.175Z,59.9609375
2023-03-07T03:57:02.246Z,59.9609375
2023-03-07T03:58:03.079Z,59.85717773
2023-03-07T03:59:04.108Z,59.9609375
2023-03-07T04:00:04.972Z,60.06469727
2023-03-07T04:01:05.934Z,60.16845703
2023-03-07T04:02:07.031Z,60.19897461
2023-03-07T04:03:08.753Z,60.30273438
2023-03-07T04:04:10.144Z,60.40649414
2023-03-07T04:05:11.305Z,60.51025391
2023-03-07T04:06:12.178Z,60.51025391
2023-03-07T04:07:13.180Z,60.61401367
2023-03-07T04:08:14.170Z,60.61401367
2023-03-07T04:09:15.273Z,60.61401367
2023-03-07T04:10:16.067Z,60.71777344
2023-03-07T04:11:16.975Z,60.8215332
2023-03-07T04:12:17.835Z,60.8215332
2023-03-07T04:13:18.836Z,60.8215332
2023-03-07T04:14:20.750Z,60.92529297
2023-03-07T04:15:21.635Z,60.92529297
2023-03-07T04:16:22.622Z,60.92529297
2023-03-07T04:17:23.382Z,61.26098633
2023-03-07T04:18:55.235Z,61.36474609
2023-03-07T04:19:56.115Z,61.36474609
2023-03-07T04:20:57.700Z,61.46850586
2023-03-07T04:21:58.537Z,61.46850586
2023-03-07T04:22:59.488Z,61.57226563
2023-03-07T04:24:00.586Z,61.67602539
2023-03-07T04:25:02.152Z,61.77978516
2023-03-07T04:26:03.229Z,61.98730469
2023-03-07T04:27:04.074Z,62.12158203
2023-03-07T04:28:04.893Z,62.09106445
2023-03-07T04:29:05.823Z,61.98730469
2023-03-07T04:30:06.702Z,61.98730469
2023-03-07T04:31:07.518Z,61.88354492
2023-03-07T04:32:09.222Z,61.98730469
2023-03-07T04:33:09.907Z,62.01782227
2023-03-07T04:34:10.811Z,62.12158203
2023-03-07T04:35:12.805Z,62.2253418
2023-03-07T04:36:13.824Z,62.32910156
2023-03-07T04:37:14.838Z,62.43286133
2023-03-07T04:38:15.885Z,62.74414063
2023-03-07T04:39:16.896Z,62.95166016
2023-03-07T04:40:17.895Z,63.0859375
2023-03-07T04:41:18.925Z,62.95166016
2023-03-07T04:42:19.872Z,62.95166016
2023-03-07T04:43:21.606Z,62.95166016
2023-03-07T04:44:23.346Z,62.95166016
2023-03-07T04:45:54.753Z,62.98217773
2023-03-07T04:46:55.672Z,63.0859375
2023-03-07T04:47:56.691Z,63.18969727
2023-03-07T04:48:57.600Z,63.18969727
2023-03-07T04:49:58.589Z,63.29345703
2023-03-07T04:50:59.570Z,63.18969727
2023-03-07T04:52:01.192Z,63.18969727
2023-03-07T04:53:02.256Z,63.18969727
2023-03-07T04:54:03.261Z,62.95166016
2023-03-07T04:55:05.154Z,63.05541992
2023-03-07T04:56:05.917Z,63.05541992
2023-03-07T04:57:06.830Z,62.95166016
2023-03-07T04:58:07.663Z,62.74414063
2023-03-07T04:59:08.591Z,62.53662109
2023-03-07T05:00:10.586Z,62.32910156
2023-03-07T05:01:11.524Z,62.09106445
2023-03-07T05:02:12.455Z,61.98730469
2023-03-07T05:03:13.516Z,61.98730469
2023-03-07T05:04:14.624Z,61.98730469
2023-03-07T05:05:16.238Z,62.2253418
2023-03-07T05:06:17.225Z,62.32910156
2023-03-07T05:07:18.141Z,62.43286133
2023-03-07T05:08:19.151Z,62.43286133
2023-03-07T05:09:20.189Z,62.43286133
2023-03-07T05:10:21.191Z,62.43286133
2023-03-07T05:11:22.056Z,62.64038086
2023-03-07T05:12:22.943Z,62.74414063
2023-03-07T05:13:54.555Z,62.43286133
2023-03-07T05:14:56.166Z,62.2253418
2023-03-07T05:15:57.290Z,62.09106445
2023-03-07T05:16:58.097Z,61.88354492
2023-03-07T05:17:59.012Z,61.88354492
2023-03-07T05:19:00.684Z,61.98730469
2023-03-07T05:20:01.674Z,62.01782227
2023-03-07T05:21:02.714Z,62.12158203
2023-03-07T05:22:03.515Z,62.2253418
2023-03-07T05:23:04.390Z,62.32910156
2023-03-07T05:24:05.307Z,62.32910156
2023-03-07T05:25:07.159Z,62.2253418
2023-03-07T05:26:08.740Z,62.32910156
2023-03-07T05:27:09.536Z,62.2253418
2023-03-07T05:28:10.690Z,62.2253418
2023-03-07T05:29:11.576Z,62.2253418
2023-03-07T05:30:13.173Z,62.32910156
2023-03-07T05:31:14.224Z,62.53662109
2023-03-07T05:32:15.028Z,62.53662109
2023-03-07T05:33:15.909Z,62.53662109
2023-03-07T05:34:16.750Z,62.64038086
2023-03-07T05:35:18.616Z,62.43286133
2023-03-07T05:36:19.664Z,62.2253418
2023-03-07T05:37:20.649Z,62.2253418
2023-03-07T05:38:21.542Z,62.32910156
2023-03-07T05:39:22.486Z,62.12158203
2023-03-07T05:40:54.086Z,62.32910156
2023-03-07T05:41:55.089Z,62.32910156
2023-03-07T05:42:56.140Z,62.56713867
2023-03-07T05:43:57.101Z,62.67089844
2023-03-07T05:44:58.708Z,62.7746582
2023-03-07T05:45:59.752Z,62.53662109
2023-03-07T05:47:00.748Z,62.53662109
2023-03-07T05:48:01.724Z,62.53662109
2023-03-07T05:49:02.587Z,62.7746582
2023-03-07T05:50:04.065Z,62.98217773
2023-03-07T05:51:05.036Z,62.98217773
2023-03-07T05:52:06.144Z,63.0859375
2023-03-07T05:53:07.037Z,62.98217773
2023-03-07T05:54:07.957Z,62.98217773
2023-03-07T05:55:09.652Z,63.0859375
2023-03-07T05:56:10.647Z,63.29345703
2023-03-07T05:57:11.689Z,63.29345703
2023-03-07T05:58:12.631Z,63.29345703
2023-03-07T05:59:13.552Z,63.29345703
2023-03-07T06:00:14.463Z,63.29345703
2023-03-07T06:01:16.072Z,63.3972168
2023-03-07T06:02:17.080Z,63.50097656
2023-03-07T06:03:17.894Z,63.62915039
2023-03-07T06:04:18.850Z,63.73291016
2023-03-07T06:05:20.665Z,63.73291016
2023-03-07T06:06:21.513Z,63.73291016
2023-03-07T06:07:22.594Z,63.94042969
2023-03-07T06:08:53.939Z,63.83666992
2023-03-07T06:09:54.932Z,63.83666992
2023-03-07T06:10:56.021Z,63.83666992
2023-03-07T06:11:56.764Z,63.73291016
2023-03-07T06:12:57.744Z,65.49682617
2023-03-07T06:13:58.722Z,65.28930664
2023-03-07T06:15:00.690Z,64.66674805
2023-03-07T06:16:01.608Z,64.35546875
2023-03-07T06:17:02.470Z,64.35546875
2023-03-07T06:18:03.454Z,64.25170898
2023-03-07T06:19:05.164Z,64.25170898
2023-03-07T06:20:06.206Z,64.25170898
2023-03-07T06:21:07.228Z,64.25170898
2023-03-07T06:22:08.239Z,64.25170898
2023-03-07T06:23:09.128Z,64.25170898
2023-03-07T06:24:10.425Z,64.25170898
2023-03-07T06:25:12.209Z,64.35546875
2023-03-07T06:26:13.444Z,64.35546875
2023-03-07T06:27:14.191Z,64.35546875
2023-03-07T06:28:15.179Z,64.25170898
2023-03-07T06:29:16.055Z,64.14794922
2023-03-07T06:30:17.154Z,63.73291016
2023-03-07T06:31:18.645Z,63.94042969
2023-03-07T06:32:19.621Z,63.94042969
2023-03-07T06:33:20.654Z,63.94042969
2023-03-07T06:34:21.537Z,64.04418945
2023-03-07T06:35:23.669Z,64.14794922
2023-03-07T06:36:55.245Z,64.04418945
2023-03-07T06:37:56.193Z,64.04418945
2023-03-07T06:38:57.103Z,63.83666992
2023-03-07T06:39:58.068Z,63.83666992
2023-03-07T06:40:59.070Z,63.73291016
2023-03-07T06:42:00.118Z,63.76342773
2023-03-07T06:43:01.151Z,63.8671875
2023-03-07T06:44:02.105Z,63.97094727
2023-03-07T06:45:02.993Z,63.97094727
2023-03-07T06:46:04.891Z,64.07470703
2023-03-07T06:47:05.757Z,64.07470703
2023-03-07T06:48:06.709Z,63.83666992
2023-03-07T06:49:07.773Z,63.73291016
2023-03-07T06:50:09.116Z,63.73291016
2023-03-07T06:51:10.128Z,63.62915039
2023-03-07T06:52:11.416Z,63.8671875
2023-03-07T06:53:12.474Z,63.97094727
2023-03-07T06:54:14.325Z,63.97094727
2023-03-07T06:55:15.334Z,64.07470703
2023-03-07T06:56:17.115Z,64.07470703
2023-03-07T06:57:18.041Z,63.73291016
2023-03-07T06:58:19.030Z,63.62915039
2023-03-07T06:59:20.130Z,63.62915039
2023-03-07T07:00:20.998Z,63.62915039
2023-03-07T07:01:21.952Z,63.62915039
2023-03-07T07:02:54.326Z,63.62915039
2023-03-07T07:03:55.171Z,63.62915039
2023-03-07T07:04:56.167Z,63.52539063
2023-03-07T07:05:57.596Z,63.21411133
2023-03-07T07:06:58.574Z,63.11035156
2023-03-07T07:07:59.683Z,63.21411133
2023-03-07T07:09:00.683Z,63.11035156
2023-03-07T07:10:01.778Z,63.21411133
2023-03-07T07:11:02.493Z,63.42163086
2023-03-07T07:12:03.465Z,63.21411133
2023-03-07T07:13:04.462Z,63.11035156
2023-03-07T07:14:05.471Z,63.31787109
2023-03-07T07:15:06.538Z,63.42163086
2023-03-07T07:16:08.166Z,63.31787109
2023-03-07T07:17:09.068Z,63.31787109
2023-03-07T07:18:11.506Z,63.21411133
2023-03-07T07:19:11.474Z,63.31787109
2023-03-07T07:20:12.512Z,63.31787109
2023-03-07T07:21:13.489Z,63.42163086
2023-03-07T07:22:14.368Z,63.42163086
2023-03-07T07:23:16.226Z,63.42163086
2023-03-07T07:24:17.260Z,63.42163086
2023-03-07T07:25:19.231Z,63.42163086
2023-03-07T07:26:21.179Z,64.04418945
2023-03-07T07:27:22.515Z,65.28930664
2023-03-07T07:28:53.995Z,64.97802734
2023-03-07T07:29:55.008Z,64.35546875
2023-03-07T07:30:56.732Z,63.94042969
2023-03-07T07:31:57.764Z,64.25170898
2023-03-07T07:32:58.767Z,64.01977539
2023-03-07T07:33:59.660Z,63.60473633
2023-03-07T07:35:00.685Z,63.0859375
2023-03-07T07:36:02.770Z,63.0859375
2023-03-07T07:37:03.764Z,62.98217773
2023-03-07T07:38:04.707Z,63.0859375
2023-03-07T07:39:05.664Z,62.98217773
2023-03-07T07:40:06.716Z,63.21411133
2023-03-07T07:41:08.740Z,63.0859375
2023-03-07T07:42:09.694Z,63.18969727
2023-03-07T07:43:10.841Z,62.7746582
2023-03-07T07:44:11.772Z,62.56713867
2023-03-07T07:45:13.714Z,62.35961914
2023-03-07T07:46:15.718Z,62.25585938
2023-03-07T07:47:16.673Z,62.25585938
2023-03-07T07:48:17.587Z,62.12158203
2023-03-07T07:49:18.826Z,62.2253418
2023-03-07T07:50:20.208Z,62.2253418
2023-03-07T07:51:21.348Z,62.12158203
2023-03-07T07:52:53.067Z,62.01782227
2023-03-07T07:53:54.080Z,62.01782227
2023-03-07T07:54:55.145Z,61.9140625
2023-03-07T07:55:56.721Z,61.9140625
2023-03-07T07:56:57.749Z,61.81030273
2023-03-07T07:57:58.640Z,61.81030273
2023-03-07T07:58:59.624Z,61.9140625
2023-03-07T08:00:00.513Z,62.01782227
2023-03-07T08:01:01.665Z,62.2253418
2023-03-07T08:02:02.767Z,62.2253418
2023-03-07T08:03:04.851Z,62.35961914
2023-03-07T08:04:05.933Z,62.46337891
2023-03-07T08:05:07.231Z,62.67089844
2023-03-07T08:06:09.218Z,62.7746582
2023-03-07T08:07:11.299Z,63.0859375
2023-03-07T08:08:12.469Z,62.84790039
2023-03-07T08:09:14.762Z,62.98217773
2023-03-07T08:10:16.041Z,63.05541992
2023-03-07T08:11:17.189Z,62.84790039
2023-03-07T08:12:18.321Z,62.74414063
2023-03-07T08:13:19.673Z,62.84790039
2023-03-07T08:14:20.694Z,62.53662109
2023-03-07T08:15:22.414Z,61.98730469
2023-03-07T08:16:54.774Z,61.88354492
2023-03-07T08:17:55.971Z,61.88354492
2023-03-07T08:18:57.036Z,61.88354492
2023-03-07T08:20:00.968Z,61.98730469
2023-03-07T08:20:59.614Z,61.75537109
2023-03-07T08:22:01.753Z,61.65161133
2023-03-07T08:23:02.815Z,61.65161133
2023-03-07T08:24:03.850Z,61.23657227
2023-03-07T08:25:05.213Z,61.23657227
2023-03-07T08:26:07.301Z,61.23657227
2023-03-07T08:27:08.549Z,61.4440918
2023-03-07T08:28:09.558Z,61.4440918
2023-03-07T08:29:10.916Z,61.4440918
2023-03-07T08:30:12.333Z,61.1328125
2023-03-07T08:31:25.042Z,61.1328125
2023-03-07T08:33:06.091Z,61.34033203
2023-03-07T08:34:06.818Z,61.34033203
2023-03-07T08:35:08.751Z,61.34033203
2023-03-07T08:36:10.025Z,61.30981445
2023-03-07T08:37:12.138Z,61.30981445
2023-03-07T08:38:12.827Z,61.51733398
2023-03-07T08:39:13.540Z,61.41357422
2023-03-07T08:40:14.447Z,61.17553711
2023-03-07T08:41:15.328Z,61.17553711
2023-03-07T08:42:17.188Z,61.38305664
2023-03-07T08:43:17.847Z,61.17553711
2023-03-07T08:44:18.691Z,60.76660156
2023-03-07T08:45:22.771Z,60.32104492
2023-03-07T08:46:53.786Z,60.21728516
2023-03-07T08:47:54.733Z,60.32104492
2023-03-07T08:48:55.664Z,60.21728516
2023-03-07T08:49:56.600Z,59.80224609
2023-03-07T08:50:57.629Z,59.69848633
2023-03-07T08:51:58.648Z,59.80224609
2023-03-07T08:52:59.638Z,59.49707031
2023-03-07T08:54:00.526Z,59.28955078
2023-03-07T08:55:01.466Z,59.18579102
2023-03-07T08:56:02.443Z,59.08203125
2023-03-07T08:57:04.318Z,58.94775391
2023-03-07T08:58:05.250Z,58.74023438
2023-03-07T08:59:06.179Z,58.63647461
2023-03-07T09:00:07.605Z,58.63647461
2023-03-07T09:01:08.602Z,58.63647461
2023-03-07T09:02:09.698Z,58.87451172
2023-03-07T09:03:10.685Z,58.87451172
2023-03-07T09:04:11.597Z,58.97827148
2023-03-07T09:05:13.112Z,59.08203125
2023-03-07T09:06:14.089Z,59.08203125
2023-03-07T09:07:15.860Z,58.97827148
2023-03-07T09:08:16.916Z,58.97827148
2023-03-07T09:09:18.667Z,58.94775391
2023-03-07T09:10:19.550Z,58.84399414
2023-03-07T09:11:20.456Z,58.53881836
2023-03-07T09:12:52.549Z,58.74023438
2023-03-07T09:13:53.494Z,58.61206055
2023-03-07T09:14:54.376Z,58.40454102
2023-03-07T09:15:55.340Z,58.30078125
2023-03-07T09:16:57.305Z,58.50830078
2023-03-07T09:17:58.300Z,58.30078125
2023-03-07T09:19:00.186Z,58.19702148
2023-03-07T09:20:01.133Z,58.30078125
2023-03-07T09:21:02.190Z,58.40454102
2023-03-07T09:22:03.113Z,58.48388672
2023-03-07T09:23:04.159Z,58.48388672
2023-03-07T09:24:05.109Z,58.58764648
2023-03-07T09:25:06.107Z,58.69140625
2023-03-07T09:26:07.657Z,58.24584961
2023-03-07T09:27:08.630Z,57.83691406
2023-03-07T09:28:10.544Z,57.52563477
2023-03-07T09:29:11.680Z,57.62939453
2023-03-07T09:30:12.783Z,57.52563477
2023-03-07T09:31:13.664Z,57.7331543
2023-03-07T09:32:15.059Z,57.83691406
2023-03-07T09:33:16.149Z,57.83691406
2023-03-07T09:34:17.139Z,57.7331543
2023-03-07T09:35:18.191Z,57.5012207
2023-03-07T09:36:19.607Z,57.39746094
2023-03-07T09:37:21.134Z,57.29370117
2023-03-07T09:38:53.353Z,57.39746094
2023-03-07T09:39:54.205Z,56.98242188
2023-03-07T09:40:55.157Z,56.87866211
2023-03-07T09:41:56.072Z,56.77490234
2023-03-07T09:42:56.999Z,56.77490234
2023-03-07T09:43:58.127Z,56.77490234
2023-03-07T09:44:58.910Z,56.98242188
2023-03-07T09:45:59.940Z,57.29370117
2023-03-07T09:47:01.645Z,56.98242188
2023-03-07T09:48:02.541Z,56.67114258
2023-03-07T09:49:03.633Z,56.67114258
2023-03-07T09:50:04.657Z,56.56738281
2023-03-07T09:51:11.712Z,56.77490234
2023-03-07T09:52:07.536Z,56.98242188
2023-03-07T09:53:07.336Z,57.08618164
2023-03-07T09:54:08.381Z,57.29370117
2023-03-07T09:55:09.348Z,57.18994141
2023-03-07T09:56:10.490Z,56.98242188
2023-03-07T09:57:11.431Z,57.18994141
2023-03-07T09:58:12.296Z,57.39746094
2023-03-07T09:59:22.435Z,57.47070313
2023-03-07T10:00:14.284Z,57.06176758
2023-03-07T10:01:15.345Z,56.43920898
2023-03-07T10:02:16.256Z,56.33544922
2023-03-07T10:03:17.100Z,56.43920898
2023-03-07T10:04:18.285Z,56.64672852
2023-03-07T10:05:19.228Z,56.75048828
2023-03-07T10:06:20.250Z,56.33544922
2023-03-07T10:07:51.582Z,56.54296875
2023-03-07T10:08:52.492Z,56.43920898
2023-03-07T10:09:53.465Z,56.33544922
2023-03-07T10:10:54.424Z,56.31103516
2023-03-07T10:11:55.409Z,56.10351563
2023-03-07T10:12:56.377Z,56.23168945
2023-03-07T10:13:57.351Z,56.33544922
2023-03-07T10:14:58.358Z,56.31103516
2023-03-07T10:15:59.175Z,56.51855469
2023-03-07T10:17:00.195Z,56.62231445
2023-03-07T10:18:02.242Z,56.41479492
2023-03-07T10:19:01.798Z,56.20727539
2023-03-07T10:20:02.731Z,56.41479492
2023-03-07T10:21:03.497Z,56.31103516
2023-03-07T10:22:04.281Z,56.41479492
2023-03-07T10:23:05.153Z,56.20727539
2023-03-07T10:24:05.977Z,55.99975586
2023-03-07T10:25:06.827Z,55.79833984
2023-03-07T10:26:07.748Z,55.99975586
2023-03-07T10:27:08.700Z,56.10351563
2023-03-07T10:28:09.597Z,56.31103516
2023-03-07T10:29:10.722Z,56.31103516
2023-03-07T10:30:11.575Z,55.99975586
2023-03-07T10:31:12.396Z,55.89599609
2023-03-07T10:32:13.339Z,55.69458008
2023-03-07T10:33:14.159Z,55.89599609
2023-03-07T10:34:25.849Z,56.10351563
2023-03-07T10:35:15.936Z,56.10351563
2023-03-07T10:36:16.749Z,56.31103516
2023-03-07T10:37:17.631Z,56.41479492
2023-03-07T10:38:18.472Z,56.41479492
2023-03-07T10:39:19.334Z,55.99975586
2023-03-07T10:40:20.804Z,55.9753418
2023-03-07T10:41:51.970Z,56.18286133
2023-03-07T10:42:52.826Z,55.87158203
2023-03-07T10:43:53.650Z,55.87158203
2023-03-07T10:44:54.500Z,55.25512695
2023-03-07T10:45:55.493Z,55.35888672
2023-03-07T10:46:56.749Z,55.25512695
2023-03-07T10:47:57.083Z,55.15136719
2023-03-07T10:48:57.873Z,55.04760742
2023-03-07T10:49:58.707Z,55.02319336
2023-03-07T10:50:59.578Z,55.53588867
2023-03-07T10:52:00.377Z,55.43212891
2023-03-07T10:53:01.204Z,55.33447266
2023-03-07T10:54:02.016Z,54.91943359
2023-03-07T10:55:02.853Z,54.81567383
2023-03-07T10:56:03.701Z,54.6081543
2023-03-07T10:57:04.542Z,54.40673828
2023-03-07T10:58:05.314Z,54.6081543
2023-03-07T10:59:06.119Z,54.6081543
2023-03-07T11:00:06.901Z,54.71191406
2023-03-07T11:01:07.862Z,54.51049805
2023-03-07T11:02:08.649Z,53.88793945
2023-03-07T11:03:09.439Z,53.99169922
2023-03-07T11:04:10.520Z,54.51049805
2023-03-07T11:05:11.412Z,54.47998047
2023-03-07T11:06:12.153Z,54.79125977
2023-03-07T11:07:13.046Z,54.89501953
2023-03-07T11:08:13.896Z,54.27856445
2023-03-07T11:09:14.705Z,54.27856445
2023-03-07T11:10:15.645Z,54.38232422
2023-03-07T11:11:16.533Z,54.17480469
2023-03-07T11:12:17.370Z,53.86352539
2023-03-07T11:13:18.181Z,54.07104492